Time;durP1;ratioP1;P1;durP2;ratioP2;P2;SDS_P1;SDS_P2;PMS_P1;PMS_P2;Temp;Humidity;BMP_temperature;BMP_pressure;BME280_temperature;BME280_humidity;BME280_pressure;Samples;Min_cycle;Max_cycle;Signal;HPM_P1;HPM_P2
2024/01/09 00:00:18;;;;;;;3.33;1.33;;;-2.70;91.10;;;;;;5016315;28;20045;-80
2024/01/09 00:02:45;;;;;;;3.57;1.23;;;-2.80;90.90;;;;;;5032552;28;20049;-80
2024/01/09 00:05:12;;;;;;;4.33;1.33;;;-2.80;90.90;;;;;;4993636;28;20136;-80
2024/01/09 00:07:39;;;;;;;4.97;1.87;;;-2.80;90.90;;;;;;5016132;28;20054;-80
2024/01/09 00:10:07;;;;;;;3.20;1.20;;;-2.80;90.90;;;;;;5003598;28;20050;-82
2024/01/09 00:12:34;;;;;;;3.77;1.20;;;-2.80;90.90;;;;;;5022311;28;20046;-77
2024/01/09 00:15:03;;;;;;;4.17;1.67;;;-2.80;91.00;;;;;;5015528;28;20041;-78
2024/01/09 00:17:30;;;;;;;3.70;1.73;;;-2.80;91.00;;;;;;5015950;28;20049;-78
2024/01/09 00:19:57;;;;;;;3.20;1.13;;;-2.90;91.00;;;;;;5016079;28;20052;-78
2024/01/09 00:22:24;;;;;;;2.40;1.07;;;-2.90;91.10;;;;;;4966184;28;20057;-78
2024/01/09 00:24:51;;;;;;;3.53;1.20;;;-2.90;91.10;;;;;;5015983;28;20037;-78
2024/01/09 00:27:18;;;;;;;4.67;1.50;;;-2.90;91.00;;;;;;4999669;28;20046;-78
2024/01/09 00:29:45;;;;;;;4.17;1.50;;;-2.90;90.90;;;;;;5015033;28;20076;-78
2024/01/09 00:32:12;;;;;;;4.57;1.73;;;-2.90;90.80;;;;;;4996422;28;20080;-78
2024/01/09 00:34:41;;;;;;;4.13;1.60;;;-2.90;90.80;;;;;;4996341;28;20045;-78
2024/01/09 00:37:08;;;;;;;3.00;1.03;;;-2.90;90.80;;;;;;5031963;28;20042;-77
2024/01/09 00:39:35;;;;;;;4.00;1.40;;;-3.00;90.90;;;;;;5007372;28;20037;-78
2024/01/09 00:42:02;;;;;;;3.80;1.23;;;-3.00;90.90;;;;;;5031946;28;20048;-77
2024/01/09 00:44:29;;;;;;;3.03;1.20;;;-3.00;90.90;;;;;;4992423;28;20107;-77
2024/01/09 00:46:56;;;;;;;2.67;1.10;;;-3.00;90.80;;;;;;4998396;28;20046;-77
2024/01/09 00:49:23;;;;;;;3.90;1.50;;;-3.00;90.80;;;;;;5003402;28;20473;-77
2024/01/09 00:51:50;;;;;;;2.90;1.20;;;-3.00;90.80;;;;;;5014484;28;20049;-77
2024/01/09 00:54:19;;;;;;;5.47;1.57;;;-3.00;90.80;;;;;;4991082;28;20060;-77
2024/01/09 00:56:46;;;;;;;3.17;1.47;;;-3.00;90.80;;;;;;5013137;28;20049;-77
2024/01/09 00:59:13;;;;;;;3.57;1.20;;;-3.00;90.80;;;;;;5011971;28;20053;-79
2024/01/09 01:01:40;;;;;;;4.73;1.40;;;-3.00;90.90;;;;;;5008353;28;20042;-79
2024/01/09 01:04:07;;;;;;;2.30;1.13;;;-3.00;90.90;;;;;;4995425;28;20104;-78
2024/01/09 01:06:41;;;;;;;5.67;1.37;;;-3.10;90.90;;;;;;4997574;28;20046;-78
2024/01/09 01:09:08;;;;;;;3.23;1.20;;;-3.00;90.90;;;;;;5001483;28;20055;-78
2024/01/09 01:11:36;;;;;;;3.27;1.10;;;-3.10;90.90;;;;;;5020843;28;20061;-78
2024/01/09 01:14:03;;;;;;;3.77;1.30;;;-3.10;90.90;;;;;;5029901;28;20056;-78
2024/01/09 01:16:32;;;;;;;3.23;1.23;;;-3.10;90.90;;;;;;5031516;28;20049;-77
2024/01/09 01:18:59;;;;;;;2.57;1.03;;;-3.10;90.90;;;;;;5009341;28;20042;-78
2024/01/09 01:21:26;;;;;;;3.10;1.10;;;-3.10;90.90;;;;;;5007467;28;20074;-78
2024/01/09 01:23:53;;;;;;;2.63;0.90;;;-3.10;90.90;;;;;;5009562;28;20041;-78
2024/01/09 01:26:21;;;;;;;3.33;0.90;;;-3.10;91.00;;;;;;5014920;28;20050;-78
2024/01/09 01:28:48;;;;;;;3.43;1.07;;;-3.10;91.00;;;;;;5027200;28;20073;-78
2024/01/09 01:31:15;;;;;;;3.63;1.10;;;-3.20;91.10;;;;;;4981674;28;20053;-78
2024/01/09 01:33:42;;;;;;;3.43;0.90;;;-3.20;91.10;;;;;;5002827;28;20048;-78
2024/01/09 01:36:15;;;;;;;3.27;1.07;;;-3.20;91.10;;;;;;5018991;28;20046;-78
2024/01/09 01:38:43;;;;;;;3.23;1.00;;;-3.20;91.10;;;;;;5017879;28;20473;-78
2024/01/09 01:41:10;;;;;;;5.67;1.60;;;-3.20;91.20;;;;;;5035318;28;20057;-78
2024/01/09 01:43:37;;;;;;;3.13;1.10;;;-3.20;91.00;;;;;;5019055;28;20051;-77
2024/01/09 01:46:08;;;;;;;5.90;1.43;;;-3.20;91.10;;;;;;4992179;28;20045;-78
2024/01/09 01:48:35;;;;;;;2.13;0.80;;;-3.20;91.20;;;;;;5032629;28;20049;-78
2024/01/09 01:51:03;;;;;;;5.37;1.10;;;-3.20;91.30;;;;;;5002699;28;20056;-78
2024/01/09 01:53:32;;;;;;;2.40;0.90;;;-3.20;91.30;;;;;;5021123;28;20410;-78
2024/01/09 01:56:00;;;;;;;2.33;0.90;;;-3.20;91.40;;;;;;4994429;28;20073;-77
2024/01/09 01:58:29;;;;;;;3.97;1.20;;;-3.30;91.40;;;;;;5029737;28;20509;-78
2024/01/09 02:00:56;;;;;;;4.13;1.20;;;-3.30;91.40;;;;;;5018674;28;20049;-78
2024/01/09 02:03:23;;;;;;;3.73;1.13;;;-3.30;91.40;;;;;;5018708;28;20046;-78
2024/01/09 02:05:51;;;;;;;3.97;1.03;;;-3.30;91.50;;;;;;4997051;28;20046;-78
2024/01/09 02:08:24;;;;;;;5.50;1.00;;;-3.30;91.50;;;;;;5010423;28;20057;-78
2024/01/09 02:10:52;;;;;;;2.63;0.67;;;-3.30;91.60;;;;;;5020890;28;20100;-78
2024/01/09 02:13:19;;;;;;;3.17;1.00;;;-3.30;91.60;;;;;;4991228;28;20104;-78
2024/01/09 02:15:46;;;;;;;4.10;1.00;;;-3.30;91.70;;;;;;5032037;28;20076;-78
2024/01/09 02:18:13;;;;;;;2.27;1.10;;;-3.40;91.70;;;;;;5018279;28;20533;-79
2024/01/09 02:20:41;;;;;;;3.27;0.90;;;-3.40;91.70;;;;;;4972574;28;20129;-78
2024/01/09 02:23:08;;;;;;;3.10;1.10;;;-3.40;91.70;;;;;;5018321;28;20125;-79
2024/01/09 02:25:35;;;;;;;3.60;1.13;;;-3.40;91.80;;;;;;5002103;28;20046;-78
2024/01/09 02:28:02;;;;;;;4.73;1.30;;;-3.40;91.80;;;;;;5030775;28;20050;-78
2024/01/09 02:30:30;;;;;;;4.43;1.50;;;-3.40;91.80;;;;;;5028035;28;20453;-78
2024/01/09 02:32:57;;;;;;;4.03;1.30;;;-3.40;91.90;;;;;;4993935;28;20457;-78
2024/01/09 02:35:25;;;;;;;2.70;1.00;;;-3.40;91.90;;;;;;5001953;28;20069;-79
2024/01/09 02:37:52;;;;;;;2.47;1.37;;;-3.40;91.90;;;;;;5013814;28;20042;-78
2024/01/09 02:40:19;;;;;;;4.20;0.90;;;-3.50;91.90;;;;;;4997649;28;20057;-78
2024/01/09 02:42:46;;;;;;;3.33;1.00;;;-3.40;92.00;;;;;;5026621;28;20042;-78
2024/01/09 02:45:14;;;;;;;4.10;1.20;;;-3.50;92.00;;;;;;5017833;28;20072;-78
2024/01/09 02:47:41;;;;;;;3.87;0.93;;;-3.50;92.00;;;;;;5008061;28;20099;-78
2024/01/09 02:50:08;;;;;;;3.33;1.00;;;-3.50;92.10;;;;;;5030315;28;20053;-77
2024/01/09 02:52:35;;;;;;;3.03;1.20;;;-3.50;92.10;;;;;;5001424;28;20513;-78
2024/01/09 02:55:02;;;;;;;4.30;1.83;;;-3.50;92.20;;;;;;5001450;28;20501;-77
2024/01/09 02:57:32;;;;;;;3.13;1.57;;;-3.50;92.20;;;;;;5027047;28;20468;-78
2024/01/09 02:59:59;;;;;;;3.40;1.00;;;-3.50;92.20;;;;;;5027490;28;20038;-78
2024/01/09 03:02:26;;;;;;;4.33;1.67;;;-3.50;92.20;;;;;;4972103;28;20053;-77
2024/01/09 03:04:54;;;;;;;5.20;1.43;;;-3.60;92.20;;;;;;4989920;28;20073;-78
2024/01/09 03:07:21;;;;;;;4.13;1.33;;;-3.60;92.30;;;;;;5011522;28;20520;-77
2024/01/09 03:09:48;;;;;;;3.93;1.47;;;-3.60;92.20;;;;;;5007567;28;20045;-77
2024/01/09 03:12:15;;;;;;;4.37;1.10;;;-3.60;92.20;;;;;;4987286;28;20557;-77
2024/01/09 03:14:42;;;;;;;4.93;1.27;;;-3.60;92.20;;;;;;4992751;28;20042;-78
2024/01/09 03:17:09;;;;;;;5.23;1.50;;;-3.60;92.30;;;;;;5011989;28;20132;-77
2024/01/09 03:19:36;;;;;;;3.03;1.40;;;-3.60;92.30;;;;;;5033432;28;20099;-78
2024/01/09 03:22:03;;;;;;;6.30;1.77;;;-3.60;92.30;;;;;;5033377;28;20038;-77
2024/01/09 03:24:31;;;;;;;3.90;1.57;;;-3.60;92.30;;;;;;5000885;28;20051;-76
2024/01/09 03:26:58;;;;;;;4.30;1.50;;;-3.60;92.20;;;;;;5007539;28;20128;-77
2024/01/09 03:29:25;;;;;;;5.73;2.33;;;-3.60;92.20;;;;;;5029597;28;20084;-77
2024/01/09 03:31:52;;;;;;;4.60;1.90;;;-3.60;92.20;;;;;;4996000;28;20470;-76
2024/01/09 03:34:18;;;;;;;5.23;1.57;;;-3.60;92.20;;;;;;5000825;28;20053;-77
2024/01/09 03:36:46;;;;;;;6.53;2.00;;;-3.60;92.20;;;;;;4988416;28;20042;-77
2024/01/09 03:39:16;;;;;;;4.33;1.60;;;-3.60;92.30;;;;;;5012305;28;20049;-77
2024/01/09 03:41:43;;;;;;;6.27;2.23;;;-3.60;92.30;;;;;;4995574;28;20049;-77
2024/01/09 03:44:12;;;;;;;4.33;1.27;;;-3.60;92.30;;;;;;4992817;28;20054;-77
2024/01/09 03:46:40;;;;;;;6.67;2.20;;;-3.70;92.20;;;;;;4996045;28;20049;-78
2024/01/09 03:49:06;;;;;;;3.80;1.67;;;-3.70;92.20;;;;;;5015267;28;20516;-78
2024/01/09 03:51:33;;;;;;;3.30;1.30;;;-3.60;92.20;;;;;;5016471;28;20486;-77
2024/01/09 03:54:01;;;;;;;4.70;1.50;;;-3.70;92.20;;;;;;5012984;28;20104;-78
2024/01/09 03:56:27;;;;;;;4.63;1.70;;;-3.70;92.30;;;;;;4992671;28;20046;-77
2024/01/09 03:58:55;;;;;;;4.83;1.30;;;-3.70;92.30;;;;;;5000244;28;20540;-78
2024/01/09 04:01:22;;;;;;;4.67;1.63;;;-3.70;92.30;;;;;;4990970;28;20080;-78
2024/01/09 04:03:49;;;;;;;6.10;2.00;;;-3.70;92.30;;;;;;5000113;28;20494;-77
2024/01/09 04:06:16;;;;;;;5.00;1.73;;;-3.70;92.30;;;;;;5022965;28;20053;-77
2024/01/09 04:08:43;;;;;;;3.93;1.60;;;-3.80;92.30;;;;;;4999028;28;20422;-77
2024/01/09 04:11:10;;;;;;;4.20;1.87;;;-3.80;92.30;;;;;;5011072;28;20069;-77
2024/01/09 04:13:38;;;;;;;4.93;2.43;;;-3.80;92.30;;;;;;5021730;28;20103;-77
2024/01/09 04:16:10;;;;;;;4.57;1.87;;;-3.80;92.30;;;;;;5009657;28;20489;-78
2024/01/09 04:18:37;;;;;;;4.25;1.55;;;-3.80;92.30;;;;;;5008833;28;20041;-79
2024/01/09 04:21:07;;;;;;;3.13;1.23;;;-3.80;92.30;;;;;;4998913;28;20091;-78
2024/01/09 04:23:34;;;;;;;4.00;1.80;;;-3.80;92.40;;;;;;5008109;28;20050;-78
2024/01/09 04:26:01;;;;;;;4.83;1.40;;;-3.80;92.40;;;;;;5015779;28;20041;-78
2024/01/09 04:28:28;;;;;;;5.20;1.70;;;-3.80;92.50;;;;;;4984213;28;20172;-78
2024/01/09 04:30:56;;;;;;;7.07;1.60;;;-3.80;92.50;;;;;;4999651;28;20046;-78
2024/01/09 04:33:23;;;;;;;4.13;1.53;;;-3.80;92.50;;;;;;5027987;28;20038;-78
2024/01/09 04:35:51;;;;;;;3.60;1.73;;;-3.80;92.40;;;;;;4987141;28;20144;-78
2024/01/09 04:38:18;;;;;;;4.17;1.90;;;-3.80;92.40;;;;;;4966960;28;20104;-79
2024/01/09 04:40:45;;;;;;;5.37;2.03;;;-3.90;92.30;;;;;;4999426;28;20115;-79
2024/01/09 04:43:12;;;;;;;5.43;1.80;;;-3.80;92.30;;;;;;5031871;28;20694;-78
2024/01/09 04:45:39;;;;;;;5.47;2.00;;;-3.90;92.30;;;;;;4996049;28;20033;-78
2024/01/09 04:48:07;;;;;;;6.37;1.87;;;-3.90;92.30;;;;;;4977057;28;20077;-78
2024/01/09 04:50:34;;;;;;;5.17;1.90;;;-3.90;92.30;;;;;;4993959;28;20058;-78
2024/01/09 04:53:01;;;;;;;5.00;2.10;;;-3.90;92.30;;;;;;4991614;28;20566;-78
2024/01/09 04:55:28;;;;;;;4.13;1.60;;;-3.90;92.20;;;;;;5001368;28;20045;-78
2024/01/09 04:57:55;;;;;;;4.33;1.73;;;-3.90;92.10;;;;;;4999166;28;20050;-78
2024/01/09 05:00:22;;;;;;;5.30;2.20;;;-3.90;92.10;;;;;;5015022;28;20045;-78
2024/01/09 05:02:49;;;;;;;5.73;1.77;;;-3.90;92.20;;;;;;5014259;28;20482;-78
2024/01/09 05:05:16;;;;;;;3.63;1.37;;;-3.90;92.30;;;;;;4998993;28;20068;-78
2024/01/09 05:07:43;;;;;;;4.13;1.53;;;-4.00;92.20;;;;;;4982798;28;20539;-79
2024/01/09 05:10:11;;;;;;;5.13;1.80;;;-4.00;92.30;;;;;;5015169;28;20058;-78
2024/01/09 05:12:38;;;;;;;8.03;2.37;;;-4.00;92.30;;;;;;5031477;28;20050;-79
2024/01/09 05:15:06;;;;;;;4.30;1.83;;;-4.00;92.30;;;;;;4987421;28;20042;-78
2024/01/09 05:17:33;;;;;;;5.40;2.10;;;-4.00;92.30;;;;;;5013220;28;20053;-78
2024/01/09 05:20:00;;;;;;;4.83;1.60;;;-4.00;92.30;;;;;;4995545;28;20111;-78
2024/01/09 05:22:27;;;;;;;5.10;1.80;;;-4.00;92.30;;;;;;5010549;28;20177;-78
2024/01/09 05:24:54;;;;;;;5.63;1.83;;;-4.00;92.40;;;;;;4998981;28;20045;-78
2024/01/09 05:27:21;;;;;;;4.63;1.60;;;-4.00;92.40;;;;;;4995305;28;20409;-78
2024/01/09 05:29:48;;;;;;;3.80;1.50;;;-4.10;92.40;;;;;;5028454;28;20049;-78
2024/01/09 05:32:15;;;;;;;3.67;1.20;;;-4.10;92.40;;;;;;5022438;28;20053;-79
2024/01/09 05:34:42;;;;;;;5.60;1.60;;;-4.10;92.40;;;;;;5010162;28;20505;-78
2024/01/09 05:37:09;;;;;;;3.67;1.27;;;-4.10;92.40;;;;;;4998926;28;20117;-79
2024/01/09 05:39:36;;;;;;;5.03;1.77;;;-4.10;92.40;;;;;;4969773;28;20046;-78
2024/01/09 05:42:04;;;;;;;5.33;1.67;;;-4.10;92.40;;;;;;4993000;28;20034;-78
2024/01/09 05:44:31;;;;;;;4.07;1.57;;;-4.10;92.50;;;;;;5006942;28;20072;-78
2024/01/09 05:46:58;;;;;;;3.70;1.30;;;-4.10;92.50;;;;;;4985176;28;20141;-78
2024/01/09 05:49:25;;;;;;;3.90;1.67;;;-4.10;92.40;;;;;;4997177;28;20046;-79
2024/01/09 05:51:55;;;;;;;4.67;1.67;;;-4.10;92.50;;;;;;5007934;28;20041;-78
2024/01/09 05:54:22;;;;;;;5.00;1.53;;;-4.20;92.50;;;;;;5011319;28;20073;-78
2024/01/09 05:56:49;;;;;;;4.90;1.77;;;-4.20;92.50;;;;;;4998675;28;20108;-79
2024/01/09 05:59:16;;;;;;;5.00;1.83;;;-4.20;92.50;;;;;;5014732;28;20458;-79
2024/01/09 06:01:43;;;;;;;4.23;1.70;;;-4.20;92.50;;;;;;5014781;28;20038;-78
2024/01/09 06:04:10;;;;;;;5.10;1.83;;;-4.20;92.50;;;;;;4998440;28;20588;-79
2024/01/09 06:06:37;;;;;;;5.47;1.90;;;-4.20;92.60;;;;;;5011339;28;20046;-78
2024/01/09 06:09:05;;;;;;;4.73;2.17;;;-4.20;92.50;;;;;;5015601;28;20084;-79
2024/01/09 06:11:32;;;;;;;6.73;2.10;;;-4.20;92.50;;;;;;5005031;28;20053;-78
2024/01/09 06:14:00;;;;;;;5.07;1.87;;;-4.20;92.40;;;;;;5002003;28;20088;-78
2024/01/09 06:16:29;;;;;;;5.43;2.03;;;-4.20;92.40;;;;;;5002594;28;20088;-78
2024/01/09 06:18:56;;;;;;;8.43;3.00;;;-4.30;92.50;;;;;;4989940;28;20482;-78
2024/01/09 06:21:23;;;;;;;5.53;2.00;;;-4.30;92.50;;;;;;4998929;28;20068;-78
2024/01/09 06:23:50;;;;;;;5.00;2.43;;;-4.30;92.50;;;;;;4995803;28;20496;-78
2024/01/09 06:26:17;;;;;;;5.07;2.27;;;-4.30;92.50;;;;;;5018161;28;20377;-78
2024/01/09 06:28:44;;;;;;;5.03;2.20;;;-4.30;92.50;;;;;;4994353;28;20231;-79
2024/01/09 06:31:11;;;;;;;4.67;2.00;;;-4.30;92.60;;;;;;5012369;28;20053;-78
2024/01/09 06:33:38;;;;;;;5.80;2.50;;;-4.40;92.50;;;;;;5034577;28;20068;-78
2024/01/09 06:36:06;;;;;;;4.40;1.77;;;-4.40;92.80;;;;;;5018004;28;20045;-79
2024/01/09 06:38:33;;;;;;;5.93;2.23;;;-4.40;92.60;;;;;;4997267;28;20046;-79
2024/01/09 06:41:00;;;;;;;8.20;3.03;;;-4.50;92.50;;;;;;5009362;28;20544;-79
2024/01/09 06:43:27;;;;;;;7.47;2.80;;;-4.50;92.50;;;;;;5024345;28;20046;-79
2024/01/09 06:45:54;;;;;;;6.37;2.10;;;-4.50;92.50;;;;;;4997008;28;20513;-78
2024/01/09 06:48:21;;;;;;;5.93;2.30;;;-4.50;92.50;;;;;;5003950;28;20054;-79
2024/01/09 06:50:48;;;;;;;5.17;1.93;;;-4.50;92.50;;;;;;4985408;28;20049;-79
2024/01/09 06:53:15;;;;;;;7.43;2.90;;;-4.50;92.70;;;;;;5011693;28;20053;-78
2024/01/09 06:55:42;;;;;;;7.37;2.97;;;-4.60;92.40;;;;;;5001385;28;20077;-79
2024/01/09 06:58:16;;;;;;;6.77;2.40;;;-4.60;92.50;;;;;;4996185;28;20053;-79
2024/01/09 07:00:44;;;;;;;5.80;2.00;;;-4.60;92.50;;;;;;5022972;28;20392;-78
2024/01/09 07:03:11;;;;;;;5.67;2.00;;;-4.60;92.50;;;;;;5009230;28;20482;-78
2024/01/09 07:05:38;;;;;;;4.73;2.03;;;-4.60;92.50;;;;;;5015315;28;20049;-79
2024/01/09 07:08:06;;;;;;;4.70;2.83;;;-4.60;92.50;;;;;;5017400;28;20191;-79
2024/01/09 07:10:34;;;;;;;6.63;2.43;;;-4.60;92.50;;;;;;4991073;28;20049;-78
2024/01/09 07:13:01;;;;;;;6.33;2.80;;;-4.70;92.50;;;;;;5017182;28;20378;-80
2024/01/09 07:15:28;;;;;;;6.33;2.40;;;-4.60;92.40;;;;;;5017078;28;20046;-79
2024/01/09 07:17:55;;;;;;;6.43;3.30;;;-4.60;92.50;;;;;;4984978;28;20069;-79
2024/01/09 07:20:23;;;;;;;6.63;2.43;;;-4.70;92.40;;;;;;5020386;28;20042;-79
2024/01/09 07:22:50;;;;;;;7.93;2.93;;;-4.70;92.40;;;;;;5016204;28;20096;-78
2024/01/09 07:25:33;;;;;;;5.20;2.07;;;-4.70;92.50;;;;;;5019106;28;20049;-78
2024/01/09 07:28:00;;;;;;;6.07;2.37;;;-4.70;92.50;;;;;;5000639;28;20049;-79
2024/01/09 07:30:27;;;;;;;7.00;2.40;;;-4.70;92.50;;;;;;5016772;28;20047;-78
2024/01/09 07:32:54;;;;;;;5.90;2.40;;;-4.70;92.50;;;;;;5033112;28;20048;-79
2024/01/09 07:35:21;;;;;;;5.77;1.80;;;-4.80;92.50;;;;;;5000726;28;20041;-79
2024/01/09 07:37:48;;;;;;;6.53;2.10;;;-4.80;92.50;;;;;;5033164;28;20045;-79
2024/01/09 07:40:15;;;;;;;6.00;2.20;;;-4.70;92.60;;;;;;5015557;28;20046;-79
2024/01/09 07:42:42;;;;;;;6.93;2.33;;;-4.70;92.60;;;;;;5013315;28;20051;-79
2024/01/09 07:45:24;;;;;;;7.07;2.17;;;-4.80;92.60;;;;;;4992876;28;20076;-79
2024/01/09 07:47:52;;;;;;;3.40;1.60;;;-4.80;92.60;;;;;;5005981;28;20140;-78
2024/01/09 07:50:21;;;;;;;7.33;2.50;;;-4.70;92.60;;;;;;5000585;28;20107;-80
2024/01/09 07:52:49;;;;;;;5.50;2.50;;;-4.70;92.60;;;;;;5016530;28;20072;-80
2024/01/09 07:55:16;;;;;;;5.23;2.00;;;-4.70;92.50;;;;;;5016348;28;20048;-80
2024/01/09 07:57:43;;;;;;;5.97;2.10;;;-4.70;92.40;;;;;;5016209;28;20045;-80
2024/01/09 08:00:10;;;;;;;7.73;3.00;;;-4.60;92.40;;;;;;5008459;28;20046;-79
2024/01/09 08:02:37;;;;;;;7.00;2.53;;;-4.70;92.30;;;;;;4983907;28;20038;-79
2024/01/09 08:05:05;;;;;;;6.13;2.10;;;-4.60;92.20;;;;;;5016154;28;20049;-79
2024/01/09 08:07:32;;;;;;;5.93;2.03;;;-4.60;92.20;;;;;;4999881;28;20053;-79
2024/01/09 08:09:59;;;;;;;6.77;2.70;;;-4.60;92.40;;;;;;5000043;28;20140;-79
2024/01/09 08:12:26;;;;;;;7.67;2.63;;;-4.60;92.10;;;;;;4985949;28;20505;-80
2024/01/09 08:14:53;;;;;;;7.47;2.63;;;-4.60;92.00;;;;;;5012961;28;20049;-79
2024/01/09 08:17:21;;;;;;;7.10;2.97;;;-4.60;92.00;;;;;;4980529;28;20457;-79
2024/01/09 08:19:49;;;;;;;6.30;2.27;;;-4.60;91.90;;;;;;5012535;28;20500;-79
2024/01/09 08:22:18;;;;;;;6.20;3.50;;;-4.60;91.90;;;;;;4995148;28;20157;-80
2024/01/09 08:24:45;;;;;;;7.07;2.20;;;-4.60;91.90;;;;;;5027838;28;20045;-79
2024/01/09 08:27:12;;;;;;;5.47;2.60;;;-4.50;91.90;;;;;;5012116;28;20490;-79
2024/01/09 08:29:39;;;;;;;5.00;2.23;;;-4.50;91.80;;;;;;5020709;28;20049;-79
2024/01/09 08:32:06;;;;;;;5.90;2.27;;;-4.50;91.60;;;;;;5032061;28;20405;-79
2024/01/09 08:34:33;;;;;;;6.73;2.37;;;-4.50;91.60;;;;;;5032769;28;20041;-79
2024/01/09 08:37:00;;;;;;;6.30;1.60;;;-4.50;91.60;;;;;;5013075;28;20049;-79
2024/01/09 08:39:27;;;;;;;3.83;1.70;;;-4.40;91.60;;;;;;5031795;28;20382;-79
2024/01/09 08:41:54;;;;;;;6.67;2.57;;;-4.30;91.40;;;;;;5002082;28;20482;-79
2024/01/09 08:44:22;;;;;;;6.80;2.50;;;-4.30;91.20;;;;;;4999442;28;20053;-79
2024/01/09 08:46:49;;;;;;;5.70;2.20;;;-4.20;91.20;;;;;;5031689;28;20077;-79
2024/01/09 08:49:16;;;;;;;5.73;2.10;;;-4.20;91.20;;;;;;4983213;28;20051;-79
2024/01/09 08:51:43;;;;;;;6.07;3.00;;;-4.20;91.00;;;;;;5015369;28;20077;-79
2024/01/09 08:54:10;;;;;;;5.90;2.30;;;-4.20;91.00;;;;;;4991897;28;20560;-79
2024/01/09 08:56:37;;;;;;;6.57;2.50;;;-4.20;90.80;;;;;;4993004;28;20049;-79
2024/01/09 08:59:07;;;;;;;5.77;2.47;;;-4.10;91.00;;;;;;4985742;28;20076;-79
2024/01/09 09:01:35;;;;;;;6.90;2.23;;;-4.10;90.60;;;;;;4996939;28;20049;-78
2024/01/09 09:04:04;;;;;;;5.67;2.37;;;-4.10;90.60;;;;;;4985888;28;20041;-78
2024/01/09 09:06:33;;;;;;;5.73;2.53;;;-4.10;90.70;;;;;;4995915;28;20099;-78
2024/01/09 09:09:00;;;;;;;5.13;1.97;;;-4.00;90.50;;;;;;5009425;28;20085;-78
2024/01/09 09:11:27;;;;;;;5.97;1.97;;;-4.00;90.50;;;;;;5021319;28;20053;-77
2024/01/09 09:13:54;;;;;;;5.30;1.77;;;-3.90;90.40;;;;;;5015139;28;20045;-77
2024/01/09 09:16:22;;;;;;;5.87;2.60;;;-3.90;90.40;;;;;;4998998;28;20073;-76
2024/01/09 09:18:49;;;;;;;6.33;2.53;;;-3.90;90.20;;;;;;4985000;28;20042;-77
2024/01/09 09:21:17;;;;;;;7.43;2.70;;;-3.80;90.00;;;;;;5031231;28;20038;-76
2024/01/09 09:23:45;;;;;;;4.37;1.90;;;-3.70;90.00;;;;;;4995909;28;20096;-77
2024/01/09 09:26:12;;;;;;;4.70;1.97;;;-3.70;89.70;;;;;;4998644;28;20045;-78
2024/01/09 09:28:47;;;;;;;4.53;2.00;;;-3.70;89.60;;;;;;4992602;28;20108;-77
2024/01/09 09:31:29;;;;;;;5.27;2.30;;;-3.70;89.40;;;;;;5013443;28;20136;-77
2024/01/09 09:33:57;;;;;;;5.77;2.37;;;-3.60;89.30;;;;;;4998073;28;20049;-83
2024/01/09 09:36:24;;;;;;;3.77;1.33;;;-3.60;89.10;;;;;;4970697;28;20065;-77
2024/01/09 09:38:53;;;;;;;6.77;2.50;;;-3.60;89.20;;;;;;5015027;28;20053;-78
2024/01/09 09:41:20;;;;;;;7.57;2.50;;;-3.60;88.80;;;;;;5010178;28;20045;-78
2024/01/09 09:43:53;;;;;;;6.27;2.37;;;-3.70;88.80;;;;;;5000804;28;20045;-78
2024/01/09 09:46:29;;;;;;;5.40;1.90;;;-3.70;88.90;;;;;;5016898;28;20052;-79
2024/01/09 09:48:57;;;;;;;4.43;1.60;;;-3.70;89.10;;;;;;5005191;28;20552;-78
2024/01/09 09:51:25;;;;;;;4.87;1.80;;;-3.70;89.10;;;;;;5035207;28;20057;-78
2024/01/09 09:53:54;;;;;;;5.03;2.00;;;-3.70;89.10;;;;;;5030025;28;20060;-79
2024/01/09 09:56:22;;;;;;;6.07;2.30;;;-3.60;89.00;;;;;;5026675;28;20120;-78
2024/01/09 09:58:53;;;;;;;5.97;2.47;;;-3.60;88.60;;;;;;4985251;28;20471;-78
2024/01/09 10:01:22;;;;;;;4.73;1.90;;;-3.60;88.50;;;;;;4999069;28;20045;-79
2024/01/09 10:03:55;;;;;;;6.43;2.33;;;-3.60;88.20;;;;;;5031719;28;20497;-78
2024/01/09 10:06:24;;;;;;;5.27;2.30;;;-3.50;87.90;;;;;;5008717;28;20042;-78
2024/01/09 10:08:54;;;;;;;5.33;2.20;;;-3.50;87.80;;;;;;5022005;28;20049;-78
2024/01/09 10:11:21;;;;;;;5.33;2.30;;;-3.50;87.70;;;;;;5025684;28;20098;-78
2024/01/09 10:13:53;;;;;;;9.67;3.40;;;-3.40;87.50;;;;;;4986375;28;20483;-77
2024/01/09 10:16:20;;;;;;;7.80;2.65;;;-3.40;87.00;;;;;;5001884;28;20045;-79
2024/01/09 10:18:47;;;;;;;6.37;2.40;;;-3.40;86.90;;;;;;5014810;28;20046;-81
2024/01/09 10:21:17;;;;;;;6.67;2.00;;;-3.40;86.90;;;;;;4998934;28;20041;-78
2024/01/09 10:23:44;;;;;;;5.90;2.43;;;-3.40;86.90;;;;;;4998810;28;20045;-79
2024/01/09 10:26:12;;;;;;;7.93;2.30;;;-3.30;87.00;;;;;;5019949;28;20045;-79
2024/01/09 10:28:39;;;;;;;6.07;2.30;;;-3.30;86.70;;;;;;5034509;28;20057;-78
2024/01/09 10:31:07;;;;;;;5.20;2.10;;;-3.30;86.30;;;;;;5021027;28;20053;-78
2024/01/09 10:33:39;;;;;;;8.30;2.83;;;-3.20;86.50;;;;;;4996128;28;20149;-78
2024/01/09 10:36:07;;;;;;;5.07;2.60;;;-3.20;86.60;;;;;;5027081;28;20461;-79
2024/01/09 10:38:34;;;;;;;5.07;2.10;;;-3.20;86.60;;;;;;5018038;28;20541;-80
2024/01/09 10:41:22;;;;;;;6.43;1.90;;;-3.10;86.30;;;;;;5018203;28;20041;-89
2024/01/09 10:43:49;;;;;;;5.37;1.93;;;-3.10;86.00;;;;;;5034247;28;20046;-79
2024/01/09 10:46:16;;;;;;;7.97;2.37;;;-3.10;85.80;;;;;;5007099;28;20042;-80
2024/01/09 10:48:46;;;;;;;5.90;2.13;;;-3.00;85.60;;;;;;5000226;28;20080;-78
2024/01/09 10:51:15;;;;;;;4.53;1.80;;;-3.00;85.10;;;;;;5008882;28;20099;-81
2024/01/09 10:53:45;;;;;;;5.37;1.57;;;-3.00;84.40;;;;;;5031964;28;20045;-81
2024/01/09 10:56:17;;;;;;;5.90;2.27;;;-2.90;84.50;;;;;;5023907;28;20049;-80
2024/01/09 10:58:49;;;;;;;4.47;1.67;;;-2.90;84.50;;;;;;5013795;28;20474;-80
2024/01/09 11:01:16;;;;;;;5.63;1.97;;;-2.90;84.40;;;;;;5027356;28;20041;-78
2024/01/09 11:03:47;;;;;;;3.80;1.43;;;-2.80;84.60;;;;;;5007408;28;20073;-80
2024/01/09 11:06:19;;;;;;;9.47;2.03;;;-2.80;84.30;;;;;;5033486;28;20042;-79
2024/01/09 11:08:51;;;;;;;4.82;1.92;;;-2.80;83.90;;;;;;5001622;28;20042;-80
2024/01/09 11:11:21;;;;;;;6.53;2.25;;;-2.70;83.10;;;;;;5033815;28;20160;-84
2024/01/09 11:13:52;;;;;;;3.40;1.47;;;-2.70;83.10;;;;;;5020224;28;20072;-78
2024/01/09 11:16:21;;;;;;;5.37;1.87;;;-2.70;83.00;;;;;;5033466;28;20441;-78
2024/01/09 11:18:50;;;;;;;4.57;1.57;;;-2.60;82.10;;;;;;5010306;28;20046;-78
2024/01/09 11:21:24;;;;;;;5.33;2.53;;;-2.60;82.30;;;;;;5034604;28;20107;-79
2024/01/09 11:23:54;;;;;;;5.07;1.67;;;-2.50;82.40;;;;;;5017301;28;20493;-79
2024/01/09 11:26:27;;;;;;;5.33;2.10;;;-2.50;82.30;;;;;;5004140;28;20064;-78
2024/01/09 11:28:54;;;;;;;4.05;1.50;;;-2.40;82.30;;;;;;5002325;28;20103;-78
2024/01/09 11:31:23;;;;;;;4.43;1.50;;;-2.40;82.30;;;;;;4992530;28;20064;-78
2024/01/09 11:33:54;;;;;;;3.47;1.17;;;-2.40;82.30;;;;;;5014032;28;20120;-78
2024/01/09 11:36:34;;;;;;;4.77;1.63;;;-2.30;82.00;;;;;;5002797;28;20041;-77
2024/01/09 11:39:03;;;;;;;3.83;1.50;;;-2.20;81.80;;;;;;5000990;28;20088;-78
2024/01/09 11:41:37;;;;;;;3.63;1.27;;;-2.20;81.70;;;;;;5019246;28;20050;-78
2024/01/09 11:44:06;;;;;;;4.17;1.47;;;-2.20;82.00;;;;;;5014485;28;20034;-77
2024/01/09 11:46:35;;;;;;;3.57;1.50;;;-2.20;81.80;;;;;;5011910;28;20449;-78
2024/01/09 11:49:04;;;;;;;3.80;1.33;;;-2.10;81.80;;;;;;5010606;28;20053;-78
2024/01/09 11:51:33;;;;;;;4.03;1.60;;;-2.10;81.90;;;;;;4999612;28;20045;-78
2024/01/09 11:54:02;;;;;;;3.33;1.20;;;-2.00;81.80;;;;;;5025676;28;20048;-78
2024/01/09 11:56:37;;;;;;;3.67;1.47;;;-2.00;81.20;;;;;;4997670;28;20045;-78
2024/01/09 11:59:05;;;;;;;5.83;1.60;;;-1.90;81.30;;;;;;5016481;28;20056;-78
2024/01/09 12:01:35;;;;;;;6.50;1.83;;;-1.90;80.90;;;;;;5013464;28;20129;-78
2024/01/09 12:04:02;;;;;;;4.77;1.77;;;-1.80;80.30;;;;;;5016400;28;20048;-78
2024/01/09 12:06:30;;;;;;;4.33;1.53;;;-1.80;80.60;;;;;;5000217;28;20049;-78
2024/01/09 12:08:57;;;;;;;4.90;1.53;;;-1.80;80.30;;;;;;4983459;28;20049;-78
2024/01/09 12:11:25;;;;;;;6.17;1.63;;;-1.70;79.30;;;;;;5015991;28;20136;-78
2024/01/09 12:14:02;;;;;;;3.97;1.47;;;-1.60;79.20;;;;;;5014877;28;20085;-77
2024/01/09 12:16:30;;;;;;;3.73;1.23;;;-1.60;78.90;;;;;;4989325;28;20401;-78
2024/01/09 12:18:58;;;;;;;4.37;1.60;;;-1.60;79.30;;;;;;5032614;28;20072;-78
2024/01/09 12:21:35;;;;;;;3.50;1.40;;;-1.50;78.30;;;;;;5009154;28;20052;-77
2024/01/09 12:24:05;;;;;;;4.37;1.33;;;-1.50;78.30;;;;;;4999579;28;20042;-78
2024/01/09 12:26:35;;;;;;;;;;;-1.50;78.70;;;;;;5032584;28;20049;-79
2024/01/09 12:29:04;;;;;;;3.50;1.20;;;-1.50;79.00;;;;;;5026708;28;19952;-77
2024/01/09 12:31:33;;;;;;;3.53;1.40;;;-1.40;79.00;;;;;;5016039;28;20140;-77
2024/01/09 12:34:01;;;;;;;4.87;1.80;;;-1.40;77.90;;;;;;4983782;28;20037;-77
2024/01/09 12:36:29;;;;;;;3.30;1.33;;;-1.30;77.90;;;;;;5008365;28;20506;-77
2024/01/09 12:38:56;;;;;;;3.50;1.50;;;-1.30;77.80;;;;;;5032358;28;20037;-77
2024/01/09 12:41:24;;;;;;;3.17;1.40;;;-1.20;77.70;;;;;;4985950;28;20050;-77
2024/01/09 12:43:52;;;;;;;4.83;2.43;;;-1.20;77.00;;;;;;4999495;28;20037;-77
2024/01/09 12:46:21;;;;;;;4.40;1.30;;;-1.20;77.00;;;;;;4999530;28;20048;-77
2024/01/09 12:48:51;;;;;;;5.17;1.87;;;-1.20;76.90;;;;;;5031893;28;20049;-77
2024/01/09 12:51:18;;;;;;;5.30;1.43;;;-1.10;77.00;;;;;;5006207;28;20042;-79